sensor_id;sensor_type;location;lat;lon;timestamp;pressure;altitude;pressure_sealevel;temperature
74485;BMP280;62942;52.462;10.846;2023-12-20T00:00:27;100270;;;
74485;BMP280;62942;52.462;10.846;2023-12-20T00:01:27;100260;;;
74485;BMP280;62942;52.462;10.846;2023-12-20T00:02:37;100260;;;
74485;BMP280;62942;52.462;10.846;2023-12-20T00:03:47;100260;;;
74485;BMP280;62942;52.462;10.846;2023-12-20T00:04:57;100270;;;
74485;BMP280;62942;52.462;10.846;2023-12-20T00:06:07;100270;;;
74485;BMP280;62942;52.462;10.846;2023-12-20T00:07:17;100260;;;
74485;BMP280;62942;52.462;10.846;2023-12-20T00:08:17;100260;;;
74485;BMP280;62942;52.462;10.846;2023-12-20T00:09:17;100250;;;
74485;BMP280;62942;52.462;10.846;2023-12-20T00:10:17;100260;;;
74485;BMP280;62942;52.462;10.846;2023-12-20T00:11:27;100260;;;
74485;BMP280;62942;52.462;10.846;2023-12-20T00:12:27;100260;;;
74485;BMP280;62942;52.462;10.846;2023-12-20T00:13:37;100250;;;
74485;BMP280;62942;52.462;10.846;2023-12-20T00:14:47;100270;;;
74485;BMP280;62942;52.462;10.846;2023-12-20T00:15:57;100260;;;
74485;BMP280;62942;52.462;10.846;2023-12-20T00:17:07;100250;;;
74485;BMP280;62942;52.462;10.846;2023-12-20T00:18:17;100250;;;
74485;BMP280;62942;52.462;10.846;2023-12-20T00:19:27;100250;;;
74485;BMP280;62942;52.462;10.846;2023-12-20T00:20:37;100250;;;
74485;BMP280;62942;52.462;10.846;2023-12-20T00:21:47;100250;;;
74485;BMP280;62942;52.462;10.846;2023-12-20T00:22:57;100260;;;
74485;BMP280;62942;52.462;10.846;2023-12-20T00:24:07;100260;;;
74485;BMP280;62942;52.462;10.846;2023-12-20T00:25:07;100250;;;
74485;BMP280;62942;52.462;10.846;2023-12-20T00:26:17;100250;;;
74485;BMP280;62942;52.462;10.846;2023-12-20T00:27:27;100250;;;
74485;BMP280;62942;52.462;10.846;2023-12-20T00:28:37;100250;;;
74485;BMP280;62942;52.462;10.846;2023-12-20T00:29:37;100250;;;
74485;BMP280;62942;52.462;10.846;2023-12-20T00:30:47;100250;;;
74485;BMP280;62942;52.462;10.846;2023-12-20T00:31:57;100250;;;
74485;BMP280;62942;52.462;10.846;2023-12-20T00:32:57;100250;;;
74485;BMP280;62942;52.462;10.846;2023-12-20T00:34:07;100250;;;
74485;BMP280;62942;52.462;10.846;2023-12-20T00:35:17;100250;;;
74485;BMP280;62942;52.462;10.846;2023-12-20T00:36:27;100240;;;
74485;BMP280;62942;52.462;10.846;2023-12-20T00:37:37;100250;;;
74485;BMP280;62942;52.462;10.846;2023-12-20T00:38:37;100250;;;
74485;BMP280;62942;52.462;10.846;2023-12-20T00:39:47;100260;;;
74485;BMP280;62942;52.462;10.846;2023-12-20T00:40:47;100260;;;
74485;BMP280;62942;52.462;10.846;2023-12-20T00:41:57;100260;;;
74485;BMP280;62942;52.462;10.846;2023-12-20T00:43:07;100260;;;
74485;BMP280;62942;52.462;10.846;2023-12-20T00:44:17;100270;;;
74485;BMP280;62942;52.462;10.846;2023-12-20T00:45:27;100260;;;
74485;BMP280;62942;52.462;10.846;2023-12-20T00:46:37;100260;;;
74485;BMP280;62942;52.462;10.846;2023-12-20T00:47:37;100260;;;
74485;BMP280;62942;52.462;10.846;2023-12-20T00:48:47;100260;;;
74485;BMP280;62942;52.462;10.846;2023-12-20T00:49:57;100270;;;
74485;BMP280;62942;52.462;10.846;2023-12-20T00:51:07;100270;;;
74485;BMP280;62942;52.462;10.846;2023-12-20T00:52:17;100270;;;
74485;BMP280;62942;52.462;10.846;2023-12-20T00:53:27;100260;;;
74485;BMP280;62942;52.462;10.846;2023-12-20T00:54:37;100260;;;
74485;BMP280;62942;52.462;10.846;2023-12-20T00:55:47;100260;;;
74485;BMP280;62942;52.462;10.846;2023-12-20T00:56:47;100260;;;
74485;BMP280;62942;52.462;10.846;2023-12-20T00:57:57;100260;;;
74485;BMP280;62942;52.462;10.846;2023-12-20T00:59:07;100270;;;
74485;BMP280;62942;52.462;10.846;2023-12-20T01:00:17;100270;;;
74485;BMP280;62942;52.462;10.846;2023-12-20T01:01:27;100270;;;
74485;BMP280;62942;52.462;10.846;2023-12-20T01:02:37;100270;;;
74485;BMP280;62942;52.462;10.846;2023-12-20T01:03:47;100260;;;
74485;BMP280;62942;52.462;10.846;2023-12-20T01:04:57;100270;;;
74485;BMP280;62942;52.462;10.846;2023-12-20T01:05:57;100270;;;
74485;BMP280;62942;52.462;10.846;2023-12-20T01:06:57;100270;;;
74485;BMP280;62942;52.462;10.846;2023-12-20T01:08:07;100270;;;
74485;BMP280;62942;52.462;10.846;2023-12-20T01:09:17;100260;;;
74485;BMP280;62942;52.462;10.846;2023-12-20T01:10:27;100260;;;
74485;BMP280;62942;52.462;10.846;2023-12-20T01:11:37;100260;;;
74485;BMP280;62942;52.462;10.846;2023-12-20T01:12:47;100260;;;
74485;BMP280;62942;52.462;10.846;2023-12-20T01:13:57;100260;;;
74485;BMP280;62942;52.462;10.846;2023-12-20T01:15:07;100260;;;
74485;BMP280;62942;52.462;10.846;2023-12-20T01:16:17;100260;;;
74485;BMP280;62942;52.462;10.846;2023-12-20T01:17:17;100260;;;
74485;BMP280;62942;52.462;10.846;2023-12-20T01:18:27;100260;;;
74485;BMP280;62942;52.462;10.846;2023-12-20T01:19:37;100260;;;
74485;BMP280;62942;52.462;10.846;2023-12-20T01:20:37;100260;;;
74485;BMP280;62942;52.462;10.846;2023-12-20T01:21:47;100250;;;
74485;BMP280;62942;52.462;10.846;2023-12-20T01:22:57;100260;;;
74485;BMP280;62942;52.462;10.846;2023-12-20T01:24:07;100260;;;
74485;BMP280;62942;52.462;10.846;2023-12-20T01:25:17;100260;;;
74485;BMP280;62942;52.462;10.846;2023-12-20T01:26:27;100250;;;
74485;BMP280;62942;52.462;10.846;2023-12-20T01:27:27;100250;;;
74485;BMP280;62942;52.462;10.846;2023-12-20T01:28:37;100250;;;
74485;BMP280;62942;52.462;10.846;2023-12-20T01:29:47;100250;;;
74485;BMP280;62942;52.462;10.846;2023-12-20T01:30:47;100240;;;
74485;BMP280;62942;52.462;10.846;2023-12-20T01:31:57;100250;;;
74485;BMP280;62942;52.462;10.846;2023-12-20T01:33:07;100250;;;
74485;BMP280;62942;52.462;10.846;2023-12-20T01:34:07;100250;;;
74485;BMP280;62942;52.462;10.846;2023-12-20T01:35:17;100260;;;
74485;BMP280;62942;52.462;10.846;2023-12-20T01:36:27;100250;;;
74485;BMP280;62942;52.462;10.846;2023-12-20T01:37:27;100250;;;
74485;BMP280;62942;52.462;10.846;2023-12-20T01:38:37;100250;;;
74485;BMP280;62942;52.462;10.846;2023-12-20T01:39:37;100250;;;
74485;BMP280;62942;52.462;10.846;2023-12-20T01:40:47;100250;;;
74485;BMP280;62942;52.462;10.846;2023-12-20T01:41:57;100260;;;
74485;BMP280;62942;52.462;10.846;2023-12-20T01:43:07;100250;;;
74485;BMP280;62942;52.462;10.846;2023-12-20T01:44:07;100250;;;
74485;BMP280;62942;52.462;10.846;2023-12-20T01:45:07;100250;;;
74485;BMP280;62942;52.462;10.846;2023-12-20T01:46:17;100250;;;
74485;BMP280;62942;52.462;10.846;2023-12-20T01:47:17;100260;;;
74485;BMP280;62942;52.462;10.846;2023-12-20T01:48:27;100250;;;
74485;BMP280;62942;52.462;10.846;2023-12-20T01:49:37;100250;;;
74485;BMP280;62942;52.462;10.846;2023-12-20T01:50:37;100250;;;
74485;BMP280;62942;52.462;10.846;2023-12-20T01:51:47;100250;;;
74485;BMP280;62942;52.462;10.846;2023-12-20T01:52:57;100260;;;
74485;BMP280;62942;52.462;10.846;2023-12-20T01:54:07;100270;;;
74485;BMP280;62942;52.462;10.846;2023-12-20T01:55:07;100260;;;
74485;BMP280;62942;52.462;10.846;2023-12-20T01:56:17;100270;;;
74485;BMP280;62942;52.462;10.846;2023-12-20T01:57:17;100280;;;
74485;BMP280;62942;52.462;10.846;2023-12-20T01:58:27;100280;;;
74485;BMP280;62942;52.462;10.846;2023-12-20T01:59:37;100280;;;
74485;BMP280;62942;52.462;10.846;2023-12-20T02:00:37;100280;;;
74485;BMP280;62942;52.462;10.846;2023-12-20T02:01:47;100270;;;
74485;BMP280;62942;52.462;10.846;2023-12-20T02:02:47;100270;;;
74485;BMP280;62942;52.462;10.846;2023-12-20T02:03:47;100270;;;
74485;BMP280;62942;52.462;10.846;2023-12-20T02:04:57;100260;;;
74485;BMP280;62942;52.462;10.846;2023-12-20T02:05:57;100260;;;
74485;BMP280;62942;52.462;10.846;2023-12-20T02:06:57;100270;;;
74485;BMP280;62942;52.462;10.846;2023-12-20T02:08:07;100270;;;
74485;BMP280;62942;52.462;10.846;2023-12-20T02:09:17;100260;;;
74485;BMP280;62942;52.462;10.846;2023-12-20T02:10:17;100270;;;
74485;BMP280;62942;52.462;10.846;2023-12-20T02:11:27;100260;;;
74485;BMP280;62942;52.462;10.846;2023-12-20T02:12:27;100270;;;
74485;BMP280;62942;52.462;10.846;2023-12-20T02:13:37;100260;;;
74485;BMP280;62942;52.462;10.846;2023-12-20T02:14:37;100260;;;
74485;BMP280;62942;52.462;10.846;2023-12-20T02:15:47;100270;;;
74485;BMP280;62942;52.462;10.846;2023-12-20T02:16:47;100270;;;
74485;BMP280;62942;52.462;10.846;2023-12-20T02:17:57;100270;;;
74485;BMP280;62942;52.462;10.846;2023-12-20T02:18:57;100270;;;
74485;BMP280;62942;52.462;10.846;2023-12-20T02:20:07;100270;;;
74485;BMP280;62942;52.462;10.846;2023-12-20T02:21:17;100280;;;
74485;BMP280;62942;52.462;10.846;2023-12-20T02:22:17;100280;;;
74485;BMP280;62942;52.462;10.846;2023-12-20T02:23:27;100280;;;
74485;BMP280;62942;52.462;10.846;2023-12-20T02:24:37;100280;;;
74485;BMP280;62942;52.462;10.846;2023-12-20T02:25:37;100280;;;
74485;BMP280;62942;52.462;10.846;2023-12-20T02:26:47;100280;;;
74485;BMP280;62942;52.462;10.846;2023-12-20T02:27:47;100280;;;
74485;BMP280;62942;52.462;10.846;2023-12-20T02:28:57;100280;;;
74485;BMP280;62942;52.462;10.846;2023-12-20T02:29:57;100280;;;
74485;BMP280;62942;52.462;10.846;2023-12-20T02:31:07;100280;;;
74485;BMP280;62942;52.462;10.846;2023-12-20T02:32:07;100280;;;
74485;BMP280;62942;52.462;10.846;2023-12-20T02:33:17;100280;;;
74485;BMP280;62942;52.462;10.846;2023-12-20T02:34:27;100280;;;
74485;BMP280;62942;52.462;10.846;2023-12-20T02:35:27;100280;;;
74485;BMP280;62942;52.462;10.846;2023-12-20T02:36:37;100280;;;
74485;BMP280;62942;52.462;10.846;2023-12-20T02:37:47;100270;;;
74485;BMP280;62942;52.462;10.846;2023-12-20T02:38:57;100280;;;
74485;BMP280;62942;52.462;10.846;2023-12-20T02:40:07;100270;;;
74485;BMP280;62942;52.462;10.846;2023-12-20T02:41:17;100270;;;
74485;BMP280;62942;52.462;10.846;2023-12-20T02:42:17;100260;;;
74485;BMP280;62942;52.462;10.846;2023-12-20T02:43:27;100260;;;
74485;BMP280;62942;52.462;10.846;2023-12-20T02:44:27;100250;;;
74485;BMP280;62942;52.462;10.846;2023-12-20T02:45:27;100250;;;
74485;BMP280;62942;52.462;10.846;2023-12-20T02:46:37;100260;;;
74485;BMP280;62942;52.462;10.846;2023-12-20T02:47:47;100250;;;
74485;BMP280;62942;52.462;10.846;2023-12-20T02:48:57;100260;;;
74485;BMP280;62942;52.462;10.846;2023-12-20T02:50:07;100260;;;
74485;BMP280;62942;52.462;10.846;2023-12-20T02:51:17;100260;;;
74485;BMP280;62942;52.462;10.846;2023-12-20T02:52:17;100250;;;
74485;BMP280;62942;52.462;10.846;2023-12-20T02:53:27;100250;;;
74485;BMP280;62942;52.462;10.846;2023-12-20T02:54:37;100250;;;
74485;BMP280;62942;52.462;10.846;2023-12-20T02:55:47;100250;;;
74485;BMP280;62942;52.462;10.846;2023-12-20T02:56:57;100250;;;
74485;BMP280;62942;52.462;10.846;2023-12-20T02:58:07;100250;;;
74485;BMP280;62942;52.462;10.846;2023-12-20T02:59:17;100240;;;
74485;BMP280;62942;52.462;10.846;2023-12-20T03:00:17;100240;;;
74485;BMP280;62942;52.462;10.846;2023-12-20T03:01:27;100240;;;
74485;BMP280;62942;52.462;10.846;2023-12-20T03:02:27;100250;;;
74485;BMP280;62942;52.462;10.846;2023-12-20T03:03:37;100250;;;
74485;BMP280;62942;52.462;10.846;2023-12-20T03:04:47;100260;;;
74485;BMP280;62942;52.462;10.846;2023-12-20T03:05:47;100250;;;
74485;BMP280;62942;52.462;10.846;2023-12-20T03:06:57;100250;;;
74485;BMP280;62942;52.462;10.846;2023-12-20T03:07:57;100250;;;
74485;BMP280;62942;52.462;10.846;2023-12-20T03:09:07;100250;;;
74485;BMP280;62942;52.462;10.846;2023-12-20T03:10:07;100250;;;
74485;BMP280;62942;52.462;10.846;2023-12-20T03:11:17;100250;;;
74485;BMP280;62942;52.462;10.846;2023-12-20T03:12:17;100230;;;
74485;BMP280;62942;52.462;10.846;2023-12-20T03:13:27;100240;;;
74485;BMP280;62942;52.462;10.846;2023-12-20T03:14:37;100240;;;
74485;BMP280;62942;52.462;10.846;2023-12-20T03:15:37;100230;;;
74485;BMP280;62942;52.462;10.846;2023-12-20T03:16:47;100230;;;
74485;BMP280;62942;52.462;10.846;2023-12-20T03:17:57;100230;;;
74485;BMP280;62942;52.462;10.846;2023-12-20T03:19:07;100240;;;
74485;BMP280;62942;52.462;10.846;2023-12-20T03:20:07;100240;;;
74485;BMP280;62942;52.462;10.846;2023-12-20T03:21:07;100240;;;
74485;BMP280;62942;52.462;10.846;2023-12-20T03:22:17;100240;;;
74485;BMP280;62942;52.462;10.846;2023-12-20T03:23:17;100240;;;
74485;BMP280;62942;52.462;10.846;2023-12-20T03:24:17;100240;;;
74485;BMP280;62942;52.462;10.846;2023-12-20T03:25:27;100240;;;
74485;BMP280;62942;52.462;10.846;2023-12-20T03:26:27;100230;;;
74485;BMP280;62942;52.462;10.846;2023-12-20T03:27:37;100260;;;
74485;BMP280;62942;52.462;10.846;2023-12-20T03:28:47;100250;;;
74485;BMP280;62942;52.462;10.846;2023-12-20T03:29:57;100250;;;
74485;BMP280;62942;52.462;10.846;2023-12-20T03:30:57;100250;;;
74485;BMP280;62942;52.462;10.846;2023-12-20T03:32:07;100250;;;
74485;BMP280;62942;52.462;10.846;2023-12-20T03:33:17;100250;;;
74485;BMP280;62942;52.462;10.846;2023-12-20T03:34:17;100260;;;
74485;BMP280;62942;52.462;10.846;2023-12-20T03:35:27;100250;;;
74485;BMP280;62942;52.462;10.846;2023-12-20T03:36:27;100240;;;
74485;BMP280;62942;52.462;10.846;2023-12-20T03:37:27;100230;;;
74485;BMP280;62942;52.462;10.846;2023-12-20T03:38:27;100230;;;
74485;BMP280;62942;52.462;10.846;2023-12-20T03:39:37;100230;;;
74485;BMP280;62942;52.462;10.846;2023-12-20T03:40:37;100230;;;
74485;BMP280;62942;52.462;10.846;2023-12-20T03:41:47;100230;;;
74485;BMP280;62942;52.462;10.846;2023-12-20T03:42:47;100220;;;
74485;BMP280;62942;52.462;10.846;2023-12-20T03:43:57;100230;;;
74485;BMP280;62942;52.462;10.846;2023-12-20T03:44:57;100210;;;
74485;BMP280;62942;52.462;10.846;2023-12-20T03:46:07;100210;;;
74485;BMP280;62942;52.462;10.846;2023-12-20T03:47:07;100210;;;
74485;BMP280;62942;52.462;10.846;2023-12-20T03:48:17;100220;;;
74485;BMP280;62942;52.462;10.846;2023-12-20T03:49:17;100220;;;
74485;BMP280;62942;52.462;10.846;2023-12-20T03:50:27;100220;;;
74485;BMP280;62942;52.462;10.846;2023-12-20T03:51:37;100210;;;
74485;BMP280;62942;52.462;10.846;2023-12-20T03:52:37;100210;;;
74485;BMP280;62942;52.462;10.846;2023-12-20T03:53:37;100210;;;
74485;BMP280;62942;52.462;10.846;2023-12-20T03:54:47;100210;;;
74485;BMP280;62942;52.462;10.846;2023-12-20T03:55:57;100210;;;
74485;BMP280;62942;52.462;10.846;2023-12-20T03:56:57;100210;;;
74485;BMP280;62942;52.462;10.846;2023-12-20T03:57:57;100210;;;
74485;BMP280;62942;52.462;10.846;2023-12-20T03:58:57;100210;;;
74485;BMP280;62942;52.462;10.846;2023-12-20T04:00:07;100190;;;
74485;BMP280;62942;52.462;10.846;2023-12-20T04:01:17;100190;;;
74485;BMP280;62942;52.462;10.846;2023-12-20T04:02:27;100200;;;
74485;BMP280;62942;52.462;10.846;2023-12-20T04:03:27;100190;;;
74485;BMP280;62942;52.462;10.846;2023-12-20T04:04:27;100200;;;
74485;BMP280;62942;52.462;10.846;2023-12-20T04:05:37;100200;;;
74485;BMP280;62942;52.462;10.846;2023-12-20T04:06:37;100190;;;
74485;BMP280;62942;52.462;10.846;2023-12-20T04:07:47;100190;;;
74485;BMP280;62942;52.462;10.846;2023-12-20T04:08:47;100190;;;
74485;BMP280;62942;52.462;10.846;2023-12-20T04:09:47;100190;;;
74485;BMP280;62942;52.462;10.846;2023-12-20T04:10:57;100190;;;
74485;BMP280;62942;52.462;10.846;2023-12-20T04:12:07;100180;;;
74485;BMP280;62942;52.462;10.846;2023-12-20T04:13:07;100190;;;
74485;BMP280;62942;52.462;10.846;2023-12-20T04:14:17;100190;;;
74485;BMP280;62942;52.462;10.846;2023-12-20T04:15:17;100190;;;
74485;BMP280;62942;52.462;10.846;2023-12-20T04:16:27;100180;;;
74485;BMP280;62942;52.462;10.846;2023-12-20T04:17:27;100190;;;
74485;BMP280;62942;52.462;10.846;2023-12-20T04:18:37;100200;;;
74485;BMP280;62942;52.462;10.846;2023-12-20T04:19:37;100200;;;
74485;BMP280;62942;52.462;10.846;2023-12-20T04:20:47;100190;;;
74485;BMP280;62942;52.462;10.846;2023-12-20T04:21:47;100190;;;
74485;BMP280;62942;52.462;10.846;2023-12-20T04:22:57;100190;;;
74485;BMP280;62942;52.462;10.846;2023-12-20T04:23:57;100190;;;
74485;BMP280;62942;52.462;10.846;2023-12-20T04:24:57;100190;;;
74485;BMP280;62942;52.462;10.846;2023-12-20T04:26:07;100190;;;
74485;BMP280;62942;52.462;10.846;2023-12-20T04:27:07;100180;;;
74485;BMP280;62942;52.462;10.846;2023-12-20T04:28:17;100190;;;
74485;BMP280;62942;52.462;10.846;2023-12-20T04:29:17;100190;;;
74485;BMP280;62942;52.462;10.846;2023-12-20T04:30:27;100190;;;
74485;BMP280;62942;52.462;10.846;2023-12-20T04:31:27;100200;;;
74485;BMP280;62942;52.462;10.846;2023-12-20T04:32:37;100190;;;
74485;BMP280;62942;52.462;10.846;2023-12-20T04:33:37;100190;;;
74485;BMP280;62942;52.462;10.846;2023-12-20T04:34:37;100190;;;
74485;BMP280;62942;52.462;10.846;2023-12-20T04:35:47;100190;;;
74485;BMP280;62942;52.462;10.846;2023-12-20T04:36:47;100190;;;
74485;BMP280;62942;52.462;10.846;2023-12-20T04:37:57;100190;;;
74485;BMP280;62942;52.462;10.846;2023-12-20T04:38:56;100200;;;
74485;BMP280;62942;52.462;10.846;2023-12-20T04:39:57;100190;;;
74485;BMP280;62942;52.462;10.846;2023-12-20T04:41:07;100200;;;
74485;BMP280;62942;52.462;10.846;2023-12-20T04:42:17;100190;;;
74485;BMP280;62942;52.462;10.846;2023-12-20T04:43:26;100200;;;
74485;BMP280;62942;52.462;10.846;2023-12-20T04:44:36;100200;;;
74485;BMP280;62942;52.462;10.846;2023-12-20T04:45:36;100190;;;
74485;BMP280;62942;52.462;10.846;2023-12-20T04:46:36;100190;;;
74485;BMP280;62942;52.462;10.846;2023-12-20T04:47:36;100190;;;
74485;BMP280;62942;52.462;10.846;2023-12-20T04:48:37;100200;;;
74485;BMP280;62942;52.462;10.846;2023-12-20T04:49:46;100200;;;
74485;BMP280;62942;52.462;10.846;2023-12-20T04:50:46;100200;;;
74485;BMP280;62942;52.462;10.846;2023-12-20T04:51:56;100200;;;
74485;BMP280;62942;52.462;10.846;2023-12-20T04:53:06;100190;;;
74485;BMP280;62942;52.462;10.846;2023-12-20T04:54:06;100200;;;
74485;BMP280;62942;52.462;10.846;2023-12-20T04:55:16;100190;;;
74485;BMP280;62942;52.462;10.846;2023-12-20T04:56:17;100190;;;
74485;BMP280;62942;52.462;10.846;2023-12-20T04:57:26;100180;;;
74485;BMP280;62942;52.462;10.846;2023-12-20T04:58:36;100190;;;
74485;BMP280;62942;52.462;10.846;2023-12-20T04:59:36;100180;;;
74485;BMP280;62942;52.462;10.846;2023-12-20T05:00:36;100170;;;
74485;BMP280;62942;52.462;10.846;2023-12-20T05:01:36;100180;;;
74485;BMP280;62942;52.462;10.846;2023-12-20T05:02:46;100180;;;
74485;BMP280;62942;52.462;10.846;2023-12-20T05:03:56;100180;;;
74485;BMP280;62942;52.462;10.846;2023-12-20T05:04:56;100180;;;
74485;BMP280;62942;52.462;10.846;2023-12-20T05:05:56;100180;;;
74485;BMP280;62942;52.462;10.846;2023-12-20T05:07:06;100170;;;
74485;BMP280;62942;52.462;10.846;2023-12-20T05:08:16;100180;;;
74485;BMP280;62942;52.462;10.846;2023-12-20T05:09:26;100170;;;
74485;BMP280;62942;52.462;10.846;2023-12-20T05:10:26;100170;;;
74485;BMP280;62942;52.462;10.846;2023-12-20T05:11:36;100160;;;
74485;BMP280;62942;52.462;10.846;2023-12-20T05:12:36;100160;;;
74485;BMP280;62942;52.462;10.846;2023-12-20T05:13:36;100170;;;
74485;BMP280;62942;52.462;10.846;2023-12-20T05:14:46;100160;;;
74485;BMP280;62942;52.462;10.846;2023-12-20T05:15:56;100160;;;
74485;BMP280;62942;52.462;10.846;2023-12-20T05:17:06;100160;;;
74485;BMP280;62942;52.462;10.846;2023-12-20T05:18:16;100160;;;
74485;BMP280;62942;52.462;10.846;2023-12-20T05:19:27;100170;;;
74485;BMP280;62942;52.462;10.846;2023-12-20T05:20:36;100160;;;
74485;BMP280;62942;52.462;10.846;2023-12-20T05:21:36;100160;;;
74485;BMP280;62942;52.462;10.846;2023-12-20T05:22:37;100160;;;
74485;BMP280;62942;52.462;10.846;2023-12-20T05:23:46;100160;;;
74485;BMP280;62942;52.462;10.846;2023-12-20T05:24:56;100150;;;
74485;BMP280;62942;52.462;10.846;2023-12-20T05:25:56;100150;;;
74485;BMP280;62942;52.462;10.846;2023-12-20T05:27:06;100160;;;
74485;BMP280;62942;52.462;10.846;2023-12-20T05:28:06;100160;;;
74485;BMP280;62942;52.462;10.846;2023-12-20T05:29:16;100160;;;
74485;BMP280;62942;52.462;10.846;2023-12-20T05:30:16;100160;;;
74485;BMP280;62942;52.462;10.846;2023-12-20T05:31:26;100160;;;
74485;BMP280;62942;52.462;10.846;2023-12-20T05:32:26;100160;;;
74485;BMP280;62942;52.462;10.846;2023-12-20T05:33:26;100160;;;
74485;BMP280;62942;52.462;10.846;2023-12-20T05:34:36;100160;;;
74485;BMP280;62942;52.462;10.846;2023-12-20T05:35:46;100160;;;
74485;BMP280;62942;52.462;10.846;2023-12-20T05:36:46;100160;;;
74485;BMP280;62942;52.462;10.846;2023-12-20T05:37:46;100170;;;
74485;BMP280;62942;52.462;10.846;2023-12-20T05:38:56;100160;;;
74485;BMP280;62942;52.462;10.846;2023-12-20T05:39:56;100160;;;
74485;BMP280;62942;52.462;10.846;2023-12-20T05:41:06;100160;;;
74485;BMP280;62942;52.462;10.846;2023-12-20T05:42:06;100150;;;
74485;BMP280;62942;52.462;10.846;2023-12-20T05:43:16;100150;;;
74485;BMP280;62942;52.462;10.846;2023-12-20T05:44:16;100150;;;
74485;BMP280;62942;52.462;10.846;2023-12-20T05:45:26;100150;;;
74485;BMP280;62942;52.462;10.846;2023-12-20T05:46:36;100150;;;
74485;BMP280;62942;52.462;10.846;2023-12-20T05:47:36;100150;;;
74485;BMP280;62942;52.462;10.846;2023-12-20T05:48:46;100140;;;
74485;BMP280;62942;52.462;10.846;2023-12-20T05:49:46;100140;;;
74485;BMP280;62942;52.462;10.846;2023-12-20T05:50:57;100140;;;
74485;BMP280;62942;52.462;10.846;2023-12-20T05:51:56;100150;;;
74485;BMP280;62942;52.462;10.846;2023-12-20T05:53:06;100140;;;
74485;BMP280;62942;52.462;10.846;2023-12-20T05:54:16;100140;;;
74485;BMP280;62942;52.462;10.846;2023-12-20T05:55:16;100130;;;
74485;BMP280;62942;52.462;10.846;2023-12-20T05:56:26;100130;;;
74485;BMP280;62942;52.462;10.846;2023-12-20T05:57:26;100130;;;
74485;BMP280;62942;52.462;10.846;2023-12-20T05:58:38;100130;;;
74485;BMP280;62942;52.462;10.846;2023-12-20T05:59:46;100130;;;
74485;BMP280;62942;52.462;10.846;2023-12-20T06:00:47;100130;;;
74485;BMP280;62942;52.462;10.846;2023-12-20T06:01:56;100130;;;
74485;BMP280;62942;52.462;10.846;2023-12-20T06:03:06;100140;;;
74485;BMP280;62942;52.462;10.846;2023-12-20T06:04:06;100130;;;
74485;BMP280;62942;52.462;10.846;2023-12-20T06:05:16;100130;;;
74485;BMP280;62942;52.462;10.846;2023-12-20T06:06:26;100120;;;
74485;BMP280;62942;52.462;10.846;2023-12-20T06:07:26;100120;;;
74485;BMP280;62942;52.462;10.846;2023-12-20T06:08:36;100120;;;
74485;BMP280;62942;52.462;10.846;2023-12-20T06:09:46;100120;;;
74485;BMP280;62942;52.462;10.846;2023-12-20T06:10:46;100130;;;
74485;BMP280;62942;52.462;10.846;2023-12-20T06:11:56;100120;;;
74485;BMP280;62942;52.462;10.846;2023-12-20T06:12:56;100130;;;
74485;BMP280;62942;52.462;10.846;2023-12-20T06:14:06;100120;;;
74485;BMP280;62942;52.462;10.846;2023-12-20T06:15:07;100130;;;
74485;BMP280;62942;52.462;10.846;2023-12-20T06:16:16;100130;;;
74485;BMP280;62942;52.462;10.846;2023-12-20T06:17:16;100130;;;
74485;BMP280;62942;52.462;10.846;2023-12-20T06:18:16;100130;;;
74485;BMP280;62942;52.462;10.846;2023-12-20T06:19:26;100120;;;
74485;BMP280;62942;52.462;10.846;2023-12-20T06:20:36;100120;;;
74485;BMP280;62942;52.462;10.846;2023-12-20T06:21:36;100130;;;
74485;BMP280;62942;52.462;10.846;2023-12-20T06:22:46;100120;;;
74485;BMP280;62942;52.462;10.846;2023-12-20T06:23:58;100110;;;
74485;BMP280;62942;52.462;10.846;2023-12-20T06:25:07;100120;;;
74485;BMP280;62942;52.462;10.846;2023-12-20T06:26:16;100120;;;
74485;BMP280;62942;52.462;10.846;2023-12-20T06:27:16;100120;;;
74485;BMP280;62942;52.462;10.846;2023-12-20T06:28:26;100120;;;
74485;BMP280;62942;52.462;10.846;2023-12-20T06:29:26;100120;;;
74485;BMP280;62942;52.462;10.846;2023-12-20T06:30:36;100120;;;
74485;BMP280;62942;52.462;10.846;2023-12-20T06:31:36;100120;;;
74485;BMP280;62942;52.462;10.846;2023-12-20T06:32:46;100120;;;
74485;BMP280;62942;52.462;10.846;2023-12-20T06:33:46;100120;;;
74485;BMP280;62942;52.462;10.846;2023-12-20T06:34:56;100120;;;
74485;BMP280;62942;52.462;10.846;2023-12-20T06:36:06;100130;;;
74485;BMP280;62942;52.462;10.846;2023-12-20T06:37:06;100120;;;
74485;BMP280;62942;52.462;10.846;2023-12-20T06:38:17;100130;;;
74485;BMP280;62942;52.462;10.846;2023-12-20T06:39:16;100120;;;
74485;BMP280;62942;52.462;10.846;2023-12-20T06:40:26;100120;;;
74485;BMP280;62942;52.462;10.846;2023-12-20T06:41:26;100110;;;
74485;BMP280;62942;52.462;10.846;2023-12-20T06:42:36;100110;;;
74485;BMP280;62942;52.462;10.846;2023-12-20T06:43:46;100110;;;
74485;BMP280;62942;52.462;10.846;2023-12-20T06:44:56;100120;;;
74485;BMP280;62942;52.462;10.846;2023-12-20T06:46:06;100120;;;
74485;BMP280;62942;52.462;10.846;2023-12-20T06:47:06;100110;;;
74485;BMP280;62942;52.462;10.846;2023-12-20T06:48:16;100130;;;
74485;BMP280;62942;52.462;10.846;2023-12-20T06:49:26;100120;;;
74485;BMP280;62942;52.462;10.846;2023-12-20T06:50:26;100120;;;
74485;BMP280;62942;52.462;10.846;2023-12-20T06:51:36;100110;;;
74485;BMP280;62942;52.462;10.846;2023-12-20T06:52:36;100120;;;
74485;BMP280;62942;52.462;10.846;2023-12-20T06:53:46;100110;;;
74485;BMP280;62942;52.462;10.846;2023-12-20T06:54:56;100110;;;
74485;BMP280;62942;52.462;10.846;2023-12-20T06:55:56;100110;;;
74485;BMP280;62942;52.462;10.846;2023-12-20T06:57:06;100100;;;